Time;durP1;ratioP1;P1;durP2;ratioP2;P2;SDS_P1;SDS_P2;PMS_P1;PMS_P2;Temp;Humidity;BMP_temperature;BMP_pressure;BME280_temperature;BME280_humidity;BME280_pressure;Samples;Min_cycle;Max_cycle;Signal;HPM_P1;HPM_P2
2022/05/12 00:01:45;;;;;;;5.32;1.48;;;21.50;53.60;;;;;;5025887;28;20041;-76
2022/05/12 00:04:11;;;;;;;5.22;1.27;;;21.50;53.60;;;;;;5024152;28;20048;-75
2022/05/12 00:06:36;;;;;;;3.00;1.23;;;21.50;53.50;;;;;;5024426;28;20083;-74
2022/05/12 00:09:02;;;;;;;2.10;1.20;;;21.50;53.50;;;;;;5025532;28;20504;-73
2022/05/12 00:11:30;;;;;;;2.38;1.08;;;21.40;53.40;;;;;;5023974;28;20152;-73
2022/05/12 00:13:56;;;;;;;2.85;1.20;;;21.40;53.40;;;;;;5026650;28;20056;-77
2022/05/12 00:16:22;;;;;;;4.50;1.30;;;21.40;53.40;;;;;;5024592;28;20041;-74
2022/05/12 00:18:48;;;;;;;3.47;1.45;;;21.40;53.40;;;;;;5020939;28;20077;-74
2022/05/12 00:21:13;;;;;;;2.45;1.20;;;21.40;53.40;;;;;;5006706;28;20124;-75
2022/05/12 00:23:39;;;;;;;2.10;0.93;;;21.40;53.40;;;;;;5026805;28;20451;-75
2022/05/12 00:26:04;;;;;;;2.40;1.17;;;21.40;53.40;;;;;;5025575;28;20046;-75
2022/05/12 00:28:30;;;;;;;1.38;1.00;;;21.40;53.40;;;;;;5024819;28;20049;-76
2022/05/12 00:30:57;;;;;;;3.90;1.40;;;21.40;53.40;;;;;;5023097;28;20038;-73
2022/05/12 00:33:26;;;;;;;3.33;1.30;;;21.30;53.30;;;;;;5027809;28;20501;-73
2022/05/12 00:35:53;;;;;;;1.92;0.95;;;21.40;53.40;;;;;;5029314;28;20089;-70
2022/05/12 00:38:18;;;;;;;2.33;1.10;;;21.30;53.30;;;;;;5029825;28;20052;-69
2022/05/12 00:40:46;;;;;;;2.55;1.20;;;21.30;53.30;;;;;;5029620;28;20049;-68
2022/05/12 00:43:32;;;;;;;1.85;0.90;;;21.40;53.40;;;;;;5025880;28;20130;-74
2022/05/12 00:45:57;;;;;;;3.13;1.27;;;21.30;53.20;;;;;;5028399;28;20041;-75
2022/05/12 00:48:23;;;;;;;3.88;1.20;;;21.30;53.30;;;;;;5029170;28;20049;-75
2022/05/12 00:50:49;;;;;;;3.35;1.10;;;21.30;53.30;;;;;;5026422;28;20059;-76
2022/05/12 00:53:16;;;;;;;2.92;1.15;;;21.30;53.30;;;;;;5025618;28;20496;-75
2022/05/12 00:55:44;;;;;;;4.18;1.15;;;21.30;53.30;;;;;;5025469;28;20081;-73
2022/05/12 00:58:14;;;;;;;3.15;1.15;;;21.30;53.30;;;;;;5017812;28;20045;-69
2022/05/12 01:00:40;;;;;;;2.30;0.95;;;21.20;53.20;;;;;;5009164;28;20053;-76
2022/05/12 01:03:24;;;;;;;2.17;1.10;;;21.30;53.30;;;;;;5025805;28;20033;-76
2022/05/12 01:05:51;;;;;;;1.85;1.10;;;21.20;53.20;;;;;;5029391;28;20045;-76
2022/05/12 01:08:19;;;;;;;1.65;0.90;;;21.20;53.20;;;;;;5029219;28;20519;-75
2022/05/12 01:10:52;;;;;;;5.15;1.13;;;21.20;53.20;;;;;;5029495;28;20044;-75
2022/05/12 01:13:19;;;;;;;1.83;0.90;;;21.20;53.20;;;;;;5027946;28;20053;-72
2022/05/12 01:15:54;;;;;;;1.98;1.00;;;21.20;53.20;;;;;;5029047;28;20129;-75
2022/05/12 01:18:21;;;;;;;2.55;0.90;;;21.20;53.20;;;;;;5028882;28;20056;-71
2022/05/12 01:20:47;;;;;;;2.72;1.05;;;21.20;53.20;;;;;;5027408;28;20045;-73
2022/05/12 01:23:22;;;;;;;2.00;1.00;;;21.20;53.10;;;;;;5019029;28;20046;-77
2022/05/12 01:25:47;;;;;;;2.63;1.00;;;21.10;53.10;;;;;;5008769;28;20045;-75
2022/05/12 01:28:13;;;;;;;2.10;1.05;;;21.10;53.10;;;;;;5027937;28;20049;-76
2022/05/12 01:30:39;;;;;;;2.05;1.23;;;21.10;53.10;;;;;;5025625;28;20080;-76
2022/05/12 01:33:04;;;;;;;2.42;0.80;;;21.10;53.00;;;;;;5029253;28;20136;-75
2022/05/12 01:35:32;;;;;;;3.78;1.13;;;21.10;53.10;;;;;;5008742;28;20081;-76
2022/05/12 01:37:58;;;;;;;1.27;0.90;;;21.10;53.00;;;;;;5009383;28;20050;-69
2022/05/12 01:40:24;;;;;;;2.53;1.00;;;21.10;53.00;;;;;;5026346;28;20513;-70
2022/05/12 01:42:51;;;;;;;1.83;1.10;;;21.10;53.00;;;;;;5026040;28;20057;-69
2022/05/12 01:45:18;;;;;;;1.52;0.82;;;21.10;53.00;;;;;;5027832;28;20072;-71
2022/05/12 01:47:44;;;;;;;2.53;1.20;;;21.00;53.00;;;;;;5028449;28;20049;-74
2022/05/12 01:50:11;;;;;;;1.25;0.80;;;21.00;53.00;;;;;;5028919;28;20487;-69
2022/05/12 01:52:39;;;;;;;2.33;1.00;;;21.10;53.10;;;;;;5027325;28;20045;-68
2022/05/12 01:55:05;;;;;;;2.33;1.03;;;21.00;52.90;;;;;;5026780;28;20037;-68
2022/05/12 01:57:30;;;;;;;1.50;0.70;;;21.00;52.90;;;;;;5028259;28;20366;-68
2022/05/12 01:59:56;;;;;;;2.42;0.95;;;21.00;52.90;;;;;;5024885;28;20054;-73
2022/05/12 02:02:23;;;;;;;1.95;0.80;;;21.00;53.70;;;;;;5028508;28;20041;-70
2022/05/12 02:04:48;;;;;;;1.67;0.90;;;21.00;53.00;;;;;;5028000;28;20037;-69
2022/05/12 02:07:15;;;;;;;1.70;0.90;;;21.00;52.90;;;;;;5027766;28;20072;-71
2022/05/12 02:09:41;;;;;;;1.50;0.80;;;21.00;52.90;;;;;;5024660;28;20045;-74
2022/05/12 02:12:08;;;;;;;3.17;1.10;;;21.00;52.90;;;;;;5028643;28;20045;-70
2022/05/12 02:14:34;;;;;;;1.95;0.90;;;21.00;52.90;;;;;;5028206;28;20152;-74
2022/05/12 02:17:00;;;;;;;1.70;0.80;;;20.90;52.80;;;;;;5026750;28;20120;-72
2022/05/12 02:19:27;;;;;;;2.22;0.80;;;20.90;52.80;;;;;;5021182;28;20058;-69
2022/05/12 02:21:54;;;;;;;1.67;0.73;;;21.00;52.90;;;;;;5026987;28;20493;-70
2022/05/12 02:24:20;;;;;;;1.43;0.80;;;20.90;52.80;;;;;;5028979;28;20049;-69
2022/05/12 02:26:46;;;;;;;2.00;1.00;;;20.90;52.80;;;;;;5027299;28;20277;-69
2022/05/12 02:29:12;;;;;;;1.20;0.90;;;20.90;52.80;;;;;;5026473;28;20057;-70
2022/05/12 02:31:37;;;;;;;1.83;0.90;;;20.90;52.80;;;;;;5026815;28;20044;-72
2022/05/12 02:34:03;;;;;;;1.80;0.95;;;20.90;52.80;;;;;;5026554;28;20095;-70
2022/05/12 02:36:29;;;;;;;1.83;0.95;;;20.90;52.80;;;;;;5028160;28;20122;-69
2022/05/12 02:38:54;;;;;;;0.90;0.60;;;20.90;52.80;;;;;;5026336;28;20110;-68
2022/05/12 02:41:20;;;;;;;0.93;0.70;;;20.90;52.80;;;;;;5025639;28;20088;-68
2022/05/12 02:43:46;;;;;;;1.90;0.80;;;20.80;52.70;;;;;;5025715;28;20053;-70
2022/05/12 02:46:15;;;;;;;1.90;0.73;;;20.90;52.80;;;;;;5006870;28;20125;-69
2022/05/12 02:48:43;;;;;;;1.55;0.68;;;20.80;52.70;;;;;;5012389;28;20148;-69
2022/05/12 02:51:09;;;;;;;1.63;0.70;;;20.80;52.70;;;;;;5027017;28;20038;-69
2022/05/12 02:53:36;;;;;;;2.00;0.63;;;20.80;52.70;;;;;;5026748;28;20398;-73
2022/05/12 02:56:03;;;;;;;2.53;0.73;;;20.80;52.70;;;;;;5015136;28;20049;-71
2022/05/12 02:58:29;;;;;;;1.45;0.75;;;20.80;52.60;;;;;;5021190;28;20096;-72
2022/05/12 03:00:55;;;;;;;2.40;0.77;;;20.80;52.70;;;;;;5026359;28;20046;-76
2022/05/12 03:03:21;;;;;;;1.38;0.77;;;20.80;52.60;;;;;;5028079;28;20065;-75
2022/05/12 03:05:50;;;;;;;1.67;0.75;;;20.80;52.70;;;;;;5023545;28;20076;-75
2022/05/12 03:08:15;;;;;;;2.05;0.70;;;20.80;52.70;;;;;;5026911;28;20080;-73
2022/05/12 03:10:41;;;;;;;1.88;0.98;;;20.80;52.60;;;;;;5026249;28;20440;-75
2022/05/12 03:13:06;;;;;;;2.63;0.60;;;20.80;52.60;;;;;;5027184;28;20160;-75
2022/05/12 03:15:32;;;;;;;1.77;0.90;;;20.70;52.60;;;;;;5025689;28;20152;-76
2022/05/12 03:17:59;;;;;;;1.38;0.73;;;20.70;52.60;;;;;;5026450;28;20040;-74
2022/05/12 03:20:27;;;;;;;1.58;0.88;;;20.70;52.60;;;;;;5025593;28;20038;-76
2022/05/12 03:22:53;;;;;;;2.83;0.80;;;20.70;52.60;;;;;;5026110;28;20053;-76
2022/05/12 03:25:19;;;;;;;1.67;0.80;;;20.70;52.60;;;;;;5026626;28;20049;-74
2022/05/12 03:27:45;;;;;;;2.00;0.68;;;20.70;52.60;;;;;;5025635;28;20041;-76
2022/05/12 03:30:15;;;;;;;1.20;0.70;;;20.70;52.60;;;;;;5023194;28;20396;-74
2022/05/12 03:32:41;;;;;;;1.83;0.80;;;20.70;52.60;;;;;;5025443;28;20088;-76
2022/05/12 03:35:09;;;;;;;1.25;0.65;;;20.70;52.60;;;;;;5025431;28;20156;-75
2022/05/12 03:37:35;;;;;;;0.63;0.50;;;20.70;52.60;;;;;;5026333;28;20488;-74
2022/05/12 03:40:00;;;;;;;1.48;0.70;;;20.70;52.60;;;;;;5023886;28;20038;-72
2022/05/12 03:42:26;;;;;;;1.48;0.70;;;20.70;52.50;;;;;;5027298;28;20088;-75
2022/05/12 03:44:54;;;;;;;1.48;0.68;;;20.60;52.60;;;;;;5020669;28;20489;-75
2022/05/12 03:47:33;;;;;;;1.48;0.70;;;20.70;52.60;;;;;;5022064;28;20802;-75
2022/05/12 03:50:07;;;;;;;1.40;0.70;;;20.70;52.50;;;;;;5025153;28;20092;-69
2022/05/12 03:52:32;;;;;;;1.23;0.52;;;20.60;52.50;;;;;;5006019;28;20049;-69
2022/05/12 03:54:59;;;;;;;1.60;0.85;;;20.60;52.50;;;;;;5008316;28;20041;-70
2022/05/12 03:57:26;;;;;;;0.90;0.60;;;20.60;52.50;;;;;;5025381;28;20025;-69
2022/05/12 03:59:53;;;;;;;1.05;0.57;;;20.70;52.50;;;;;;4999823;28;20077;-73
2022/05/12 04:02:19;;;;;;;1.77;0.63;;;20.60;52.60;;;;;;5004626;28;20046;-75
2022/05/12 04:04:47;;;;;;;1.75;0.77;;;20.60;52.50;;;;;;5011460;28;20132;-70
2022/05/12 04:07:15;;;;;;;1.38;0.60;;;20.60;52.50;;;;;;5024310;28;20081;-76
2022/05/12 04:09:40;;;;;;;;;;;20.60;52.70;;;;;;5025347;28;20056;-74
2022/05/12 04:12:09;;;;;;;3.05;0.90;;;20.60;52.40;;;;;;5026488;28;19924;-73
2022/05/12 04:14:36;;;;;;;2.45;0.70;;;20.60;52.50;;;;;;5024346;28;20049;-73
2022/05/12 04:17:01;;;;;;;1.88;0.70;;;20.60;52.50;;;;;;5023597;28;20087;-75
2022/05/12 04:19:28;;;;;;;1.45;0.80;;;20.60;52.50;;;;;;5004524;28;20045;-74
2022/05/12 04:21:54;;;;;;;0.95;0.55;;;20.60;52.50;;;;;;5036888;28;20045;-68
2022/05/12 04:24:20;;;;;;;1.45;0.70;;;20.60;52.50;;;;;;5004955;28;20042;-70
2022/05/12 04:26:46;;;;;;;1.17;0.70;;;20.60;52.50;;;;;;5006986;28;20519;-68
2022/05/12 04:29:12;;;;;;;1.10;0.60;;;20.60;52.50;;;;;;5021517;28;20045;-68
2022/05/12 04:31:38;;;;;;;1.10;0.60;;;20.60;52.50;;;;;;5023171;28;20033;-68
2022/05/12 04:36:48;;;;;;;1.65;0.80;;;20.60;52.50;;;;;;5025362;28;20064;-69
2022/05/12 04:39:14;;;;;;;1.42;0.52;;;20.60;52.50;;;;;;5024635;28;20033;-69
2022/05/12 04:41:40;;;;;;;1.63;0.50;;;20.50;52.40;;;;;;5025716;28;20045;-68
2022/05/12 04:44:06;;;;;;;1.45;0.60;;;20.60;52.50;;;;;;5023481;28;20049;-69
2022/05/12 04:46:34;;;;;;;1.65;0.65;;;20.60;52.50;;;;;;5025253;28;20505;-69
2022/05/12 04:49:03;;;;;;;1.13;0.75;;;20.50;52.40;;;;;;5023584;28;20895;-69
2022/05/12 04:51:29;;;;;;;0.80;0.45;;;20.60;52.50;;;;;;5026107;28;20045;-70
2022/05/12 04:53:55;;;;;;;1.60;0.57;;;20.50;52.40;;;;;;5023594;28;20056;-70
2022/05/12 04:56:21;;;;;;;1.65;0.68;;;20.50;52.40;;;;;;5017525;28;20045;-68
2022/05/12 04:58:46;;;;;;;2.13;0.82;;;20.50;52.40;;;;;;5025224;28;20061;-68
2022/05/12 05:01:12;;;;;;;0.88;0.50;;;20.60;52.50;;;;;;5022622;28;20103;-68
2022/05/12 05:03:37;;;;;;;3.53;0.65;;;20.60;52.50;;;;;;5025404;28;20084;-74
2022/05/12 05:06:03;;;;;;;1.10;0.70;;;20.50;52.40;;;;;;5024014;28;20128;-74
2022/05/12 05:08:28;;;;;;;1.55;0.68;;;20.50;52.50;;;;;;5026372;28;20496;-75
2022/05/12 05:10:54;;;;;;;1.48;0.63;;;20.60;52.60;;;;;;5021380;28;20041;-75
2022/05/12 05:13:22;;;;;;;1.05;0.60;;;20.50;52.40;;;;;;5025371;28;20180;-75
2022/05/12 05:15:49;;;;;;;1.42;0.63;;;20.50;52.50;;;;;;5022756;28;20488;-74
2022/05/12 05:18:17;;;;;;;1.27;0.60;;;20.50;52.40;;;;;;5027740;28;20497;-69
2022/05/12 05:20:44;;;;;;;2.40;0.75;;;20.60;52.50;;;;;;5025604;28;20041;-69
2022/05/12 05:23:11;;;;;;;1.23;0.60;;;20.50;52.50;;;;;;5029244;28;20049;-69
2022/05/12 05:25:38;;;;;;;1.65;0.85;;;20.50;52.50;;;;;;5011062;28;20037;-70
2022/05/12 05:28:05;;;;;;;1.95;0.85;;;20.50;52.50;;;;;;5028443;28;20037;-68
2022/05/12 05:30:32;;;;;;;2.22;0.77;;;20.50;52.50;;;;;;5028037;28;20042;-68
2022/05/12 05:32:58;;;;;;;1.98;0.60;;;20.50;52.50;;;;;;5010562;28;20412;-68
2022/05/12 05:35:25;;;;;;;2.05;0.80;;;20.50;52.50;;;;;;5026594;28;20053;-68
2022/05/12 05:37:52;;;;;;;1.40;0.60;;;20.50;52.60;;;;;;5025583;28;20052;-69
2022/05/12 05:40:21;;;;;;;2.05;0.60;;;20.60;52.50;;;;;;5043741;28;20534;-70
2022/05/12 05:42:48;;;;;;;0.95;0.50;;;20.60;52.60;;;;;;5029151;28;20136;-68
2022/05/12 05:45:17;;;;;;;3.85;0.60;;;20.60;52.80;;;;;;5018708;28;20056;-68
2022/05/12 05:47:48;;;;;;;2.75;0.73;;;20.60;53.00;;;;;;5024577;28;20539;-69
2022/05/12 05:50:18;;;;;;;5.07;0.70;;;20.70;53.30;;;;;;5027173;28;20087;-70
2022/05/12 05:55:27;;;;;;;1.77;0.77;;;20.70;53.70;;;;;;5022497;28;20077;-69
2022/05/12 05:58:01;;;;;;;6.18;0.82;;;20.70;53.80;;;;;;5023253;28;20199;-69
2022/05/12 06:00:28;;;;;;;3.30;0.80;;;20.70;54.00;;;;;;5021679;28;20128;-74
2022/05/12 06:02:54;;;;;;;5.43;0.80;;;20.80;54.20;;;;;;5024227;28;20056;-68
2022/05/12 06:05:21;;;;;;;1.80;0.68;;;20.80;54.40;;;;;;5006226;28;20050;-74
2022/05/12 06:07:47;;;;;;;3.70;0.80;;;20.90;54.60;;;;;;5021742;28;20052;-69
2022/05/12 06:10:13;;;;;;;3.05;0.95;;;20.90;54.70;;;;;;5024084;28;20052;-70
2022/05/12 06:12:38;;;;;;;2.58;0.80;;;20.90;54.80;;;;;;5034552;28;20049;-72
2022/05/12 06:15:05;;;;;;;3.78;0.75;;;21.00;54.80;;;;;;5019128;28;20388;-72
2022/05/12 06:17:31;;;;;;;1.58;0.90;;;21.00;54.70;;;;;;5022664;28;20144;-70
2022/05/12 06:19:58;;;;;;;3.15;0.80;;;21.00;54.70;;;;;;5021656;28;20172;-71
2022/05/12 06:22:23;;;;;;;1.90;0.80;;;21.10;54.70;;;;;;5014328;28;20140;-76
2022/05/12 06:24:49;;;;;;;2.20;0.70;;;21.10;54.80;;;;;;5002932;28;20137;-67
2022/05/12 06:27:19;;;;;;;2.75;0.80;;;21.10;54.70;;;;;;5021167;28;20103;-69
2022/05/12 06:29:45;;;;;;;4.18;0.90;;;21.10;54.70;;;;;;5021958;28;20073;-72
2022/05/12 06:32:11;;;;;;;5.97;0.82;;;21.20;54.80;;;;;;5020445;28;20088;-69
2022/05/12 06:34:37;;;;;;;2.58;0.80;;;21.20;54.90;;;;;;5023582;28;20574;-71
2022/05/12 06:37:04;;;;;;;5.15;0.80;;;21.20;54.80;;;;;;5020619;28;20053;-68
2022/05/12 06:39:30;;;;;;;3.83;0.98;;;21.20;54.70;;;;;;5024315;28;20103;-69
2022/05/12 06:41:56;;;;;;;5.50;1.08;;;21.30;54.60;;;;;;5023173;28;20037;-68
2022/05/12 06:44:25;;;;;;;3.58;1.02;;;21.30;54.60;;;;;;5022669;28;20064;-68
2022/05/12 06:46:53;;;;;;;5.30;1.20;;;21.40;54.50;;;;;;5021495;28;20045;-67
2022/05/12 06:49:20;;;;;;;7.93;0.95;;;21.40;54.40;;;;;;5022678;28;20384;-68
2022/05/12 06:51:45;;;;;;;5.88;1.20;;;21.40;54.20;;;;;;5023904;28;20060;-71
2022/05/12 06:54:13;;;;;;;3.55;1.10;;;21.40;54.20;;;;;;5022756;28;20041;-68
2022/05/12 06:56:41;;;;;;;5.65;1.02;;;21.40;54.00;;;;;;5020141;28;20081;-69
2022/05/12 06:59:07;;;;;;;4.25;1.20;;;21.50;54.00;;;;;;5012730;28;20124;-68
2022/05/12 07:01:33;;;;;;;4.60;1.20;;;21.50;54.00;;;;;;5024509;28;20038;-70
2022/05/12 07:04:00;;;;;;;4.55;1.13;;;21.50;54.00;;;;;;5023208;28;20485;-69
2022/05/12 07:06:26;;;;;;;3.75;1.20;;;21.50;53.90;;;;;;5020570;28;20037;-68
2022/05/12 07:08:52;;;;;;;3.83;1.10;;;21.60;53.90;;;;;;5023664;28;20067;-67
2022/05/12 07:11:17;;;;;;;4.43;1.20;;;21.60;53.80;;;;;;5023082;28;20088;-71
2022/05/12 07:13:43;;;;;;;1.98;0.88;;;21.70;53.70;;;;;;5024458;28;20148;-71
2022/05/12 07:16:09;;;;;;;5.78;1.10;;;21.70;53.70;;;;;;5020141;28;20055;-69
2022/05/12 07:18:36;;;;;;;4.90;1.33;;;21.80;53.60;;;;;;5023029;28;20049;-69
2022/05/12 07:26:40;;;;;;;2.72;1.00;;;21.80;53.20;;;;;;5023787;28;20047;-73
2022/05/12 07:29:18;;;;;;;2.45;1.00;;;21.90;53.20;;;;;;5017991;28;20042;-68
2022/05/12 07:31:44;;;;;;;6.63;1.23;;;22.00;53.00;;;;;;5022113;28;20045;-68
2022/05/12 07:34:10;;;;;;;3.28;1.13;;;22.00;53.00;;;;;;5018250;28;20226;-72
2022/05/12 07:36:43;;;;;;;4.28;1.00;;;22.00;52.80;;;;;;5016800;28;20528;-73
2022/05/12 07:39:12;;;;;;;3.33;1.10;;;22.10;52.70;;;;;;5018645;28;20168;-68
2022/05/12 07:41:41;;;;;;;4.75;1.08;;;22.10;52.60;;;;;;5021132;28;20049;-71
2022/05/12 07:44:08;;;;;;;2.97;1.20;;;22.10;52.50;;;;;;5019692;28;20095;-71
2022/05/12 07:46:34;;;;;;;5.07;0.85;;;22.10;52.40;;;;;;5021245;28;20130;-69
2022/05/12 07:48:59;;;;;;;4.82;1.05;;;22.20;52.30;;;;;;5022163;28;20799;-67
2022/05/12 07:51:25;;;;;;;4.38;1.45;;;22.20;52.20;;;;;;5021195;28;20145;-69
2022/05/12 07:53:51;;;;;;;4.80;0.80;;;22.20;52.10;;;;;;5024217;28;20475;-70
2022/05/12 07:56:25;;;;;;;3.35;1.20;;;22.30;52.00;;;;;;5021016;28;20095;-71
2022/05/12 07:58:52;;;;;;;3.58;1.00;;;22.30;51.90;;;;;;5022011;28;20528;-70
2022/05/12 08:01:19;;;;;;;2.15;0.88;;;22.30;51.90;;;;;;5021452;28;20120;-69
2022/05/12 08:03:45;;;;;;;3.92;1.00;;;22.40;51.90;;;;;;5004743;28;20045;-65
2022/05/12 08:06:15;;;;;;;3.97;1.10;;;22.40;51.80;;;;;;5017007;28;20136;-71
2022/05/12 08:08:42;;;;;;;3.53;1.00;;;22.40;51.70;;;;;;5020694;28;20045;-68
2022/05/12 08:11:08;;;;;;;4.38;1.20;;;22.40;51.50;;;;;;5023037;28;20049;-67
2022/05/12 08:13:34;;;;;;;5.35;1.00;;;22.50;51.50;;;;;;5021812;28;20044;-66
2022/05/12 08:16:02;;;;;;;3.15;1.00;;;22.50;51.40;;;;;;5021906;28;20049;-72
2022/05/12 08:18:28;;;;;;;;;;;22.50;51.30;;;;;;5008579;28;20096;-71
2022/05/12 08:20:54;;;;;;;4.78;1.00;;;22.50;51.20;;;;;;5006523;28;19920;-70
2022/05/12 08:23:21;;;;;;;3.05;1.10;;;22.60;51.40;;;;;;5025005;28;20038;-70
2022/05/12 08:25:48;;;;;;;3.83;1.08;;;22.50;51.20;;;;;;5018338;28;20422;-71
2022/05/12 08:28:17;;;;;;;4.22;1.10;;;22.60;51.10;;;;;;5022618;28;20119;-68
2022/05/12 08:30:44;;;;;;;3.13;1.05;;;22.60;51.00;;;;;;5016994;28;20045;-70
2022/05/12 08:33:11;;;;;;;2.88;0.95;;;22.60;50.90;;;;;;5023886;28;20046;-71
2022/05/12 08:35:37;;;;;;;3.50;1.02;;;22.60;50.90;;;;;;5026444;28;20049;-70
2022/05/12 08:38:02;;;;;;;2.50;0.80;;;22.60;50.70;;;;;;5025495;28;20551;-71
2022/05/12 08:40:28;;;;;;;5.72;0.98;;;22.60;50.60;;;;;;5024547;28;20085;-71
2022/05/12 08:42:56;;;;;;;4.38;0.90;;;22.60;50.50;;;;;;5028599;28;20092;-71
2022/05/12 08:45:23;;;;;;;4.20;1.15;;;22.60;50.50;;;;;;5018323;28;20107;-69
2022/05/12 08:47:50;;;;;;;4.40;0.93;;;22.60;50.40;;;;;;5012427;28;20054;-69
2022/05/12 08:50:28;;;;;;;3.88;1.00;;;22.60;50.40;;;;;;5024094;28;20760;-69
2022/05/12 08:53:03;;;;;;;4.05;0.90;;;22.60;50.30;;;;;;5020318;28;20033;-68
2022/05/12 08:55:48;;;;;;;4.65;1.05;;;22.60;50.30;;;;;;5021360;28;20029;-70
2022/05/12 08:58:36;;;;;;;2.53;1.00;;;22.70;50.30;;;;;;5007307;28;20049;-68
2022/05/12 09:01:08;;;;;;;5.68;0.90;;;22.70;50.10;;;;;;5019176;28;20046;-67
2022/05/12 09:04:11;;;;;;;1.98;0.80;;;22.70;50.10;;;;;;5008346;28;20095;-67
2022/05/12 09:07:05;;;;;;;3.20;0.98;;;22.70;49.90;;;;;;5021931;28;20048;-69
2022/05/12 09:10:15;;;;;;;5.70;1.27;;;22.70;50.00;;;;;;5018934;28;20370;-70
2022/05/12 09:13:18;;;;;;;2.17;0.90;;;22.70;49.80;;;;;;5007446;28;20057;-70
2022/05/12 09:15:54;;;;;;;2.58;1.00;;;22.70;49.60;;;;;;5018029;28;20448;-69
2022/05/12 09:18:32;;;;;;;6.88;1.10;;;22.70;49.60;;;;;;5009394;28;20124;-70
2022/05/12 09:21:05;;;;;;;2.70;0.73;;;22.70;49.50;;;;;;5010663;28;20128;-69
2022/05/12 09:23:30;;;;;;;7.90;1.10;;;22.70;49.50;;;;;;5027922;28;20113;-69
2022/05/12 09:25:56;;;;;;;2.72;0.75;;;22.70;49.40;;;;;;5005407;28;20049;-70
2022/05/12 09:28:33;;;;;;;6.20;1.00;;;22.70;49.30;;;;;;5011301;28;20046;-70
2022/05/12 09:31:12;;;;;;;4.13;1.15;;;22.60;49.20;;;;;;5024574;28;20053;-69
2022/05/12 09:33:39;;;;;;;2.88;0.90;;;22.60;49.30;;;;;;5012196;28;20124;-70
2022/05/12 09:36:14;;;;;;;1.80;0.73;;;22.70;49.40;;;;;;5025215;28;20531;-72
2022/05/12 09:38:42;;;;;;;2.53;0.80;;;22.60;49.30;;;;;;5008673;28;20053;-73
2022/05/12 09:41:18;;;;;;;2.70;0.80;;;22.70;49.40;;;;;;5033923;28;20120;-70
2022/05/12 09:43:44;;;;;;;4.65;0.98;;;22.70;49.30;;;;;;5024699;28;20049;-70
2022/05/12 09:46:16;;;;;;;4.90;0.82;;;22.70;49.30;;;;;;5023451;28;20536;-74
2022/05/12 09:48:42;;;;;;;4.03;0.90;;;22.60;49.10;;;;;;5027409;28;20085;-70
2022/05/12 09:51:32;;;;;;;5.28;0.90;;;22.60;48.90;;;;;;5027744;28;20685;-70
2022/05/12 09:54:28;;;;;;;2.80;1.10;;;22.60;48.60;;;;;;5018561;28;20057;-72
2022/05/12 09:57:09;;;;;;;4.43;0.98;;;22.60;48.40;;;;;;5007971;28;20042;-74
2022/05/12 09:59:34;;;;;;;3.35;0.82;;;22.60;48.50;;;;;;4990550;28;20038;-73
2022/05/12 10:08:27;;;;;;;3.95;0.70;;;22.60;48.40;;;;;;5027236;28;20448;-72
2022/05/12 10:10:59;;;;;;;7.65;1.15;;;22.60;48.20;;;;;;5041632;28;20041;-69
2022/05/12 10:13:46;;;;;;;4.20;1.02;;;22.50;48.70;;;;;;5024296;28;20052;-71
2022/05/12 10:16:15;;;;;;;3.45;0.98;;;22.50;48.10;;;;;;5009670;28;20615;-76
2022/05/12 10:18:52;;;;;;;2.05;0.88;;;22.50;47.80;;;;;;5023798;28;20049;-71
2022/05/12 10:21:32;;;;;;;4.78;0.93;;;22.50;47.70;;;;;;5028419;28;20041;-70
2022/05/12 10:24:19;;;;;;;2.97;1.05;;;22.50;47.60;;;;;;5029156;28;20053;-70
2022/05/12 10:27:17;;;;;;;5.78;1.10;;;22.50;47.60;;;;;;5007411;28;20050;-70
2022/05/12 10:29:54;;;;;;;4.20;0.88;;;22.60;47.60;;;;;;5014850;28;20072;-72
2022/05/12 10:32:38;;;;;;;4.43;1.23;;;22.50;47.50;;;;;;5018278;28;20394;-68
2022/05/12 10:35:25;;;;;;;2.20;0.80;;;22.60;47.50;;;;;;5024864;28;20055;-74
2022/05/12 10:38:17;;;;;;;3.10;0.90;;;22.60;47.50;;;;;;5028083;28;20648;-70
2022/05/12 10:40:52;;;;;;;6.47;0.80;;;22.60;47.50;;;;;;5025237;28;20075;-72
2022/05/12 10:43:55;;;;;;;3.70;1.08;;;22.60;47.30;;;;;;5038646;28;20069;-75
2022/05/12 10:46:40;;;;;;;3.35;0.90;;;22.60;47.50;;;;;;4992414;28;20136;-71
2022/05/12 10:49:21;;;;;;;2.63;0.95;;;22.60;47.30;;;;;;5026733;28;20104;-71
2022/05/12 10:52:05;;;;;;;3.08;1.00;;;22.60;47.30;;;;;;5027303;28;20144;-73
2022/05/12 10:55:07;;;;;;;2.53;1.00;;;22.60;47.30;;;;;;5028209;28;20048;-71
2022/05/12 10:57:36;;;;;;;4.03;0.90;;;22.60;47.30;;;;;;5024930;28;20072;-70
2022/05/12 11:00:23;;;;;;;2.30;0.77;;;22.60;47.30;;;;;;5025345;28;20049;-69
2022/05/12 11:02:55;;;;;;;2.00;1.08;;;22.60;47.30;;;;;;5025167;28;20095;-69
2022/05/12 11:05:31;;;;;;;7.15;1.02;;;22.60;47.20;;;;;;5026135;28;20053;-71
2022/05/12 11:08:07;;;;;;;5.68;0.80;;;22.60;47.20;;;;;;5026064;28;20509;-71
2022/05/12 11:10:50;;;;;;;3.05;0.90;;;22.60;47.20;;;;;;5017926;28;20414;-69
2022/05/12 11:13:37;;;;;;;5.55;1.00;;;22.60;47.20;;;;;;5023624;28;20059;-70
2022/05/12 11:16:21;;;;;;;3.67;1.67;;;22.60;47.30;;;;;;5023348;28;20476;-69
2022/05/12 11:19:10;;;;;;;5.20;0.90;;;22.60;47.20;;;;;;5023927;28;20055;-70
2022/05/12 11:21:56;;;;;;;3.88;0.80;;;22.60;47.30;;;;;;5017141;28;20037;-71
2022/05/12 11:24:35;;;;;;;2.63;0.80;;;22.60;47.20;;;;;;5021452;28;20053;-68
2022/05/12 11:27:16;;;;;;;4.20;0.95;;;22.60;47.30;;;;;;5024245;28;20099;-69
2022/05/12 11:29:44;;;;;;;2.78;0.80;;;22.60;47.20;;;;;;5026268;28;20124;-68
2022/05/12 11:32:10;;;;;;;;;;;22.60;47.20;;;;;;5025491;28;20034;-71
2022/05/12 11:34:38;;;;;;;2.28;0.88;;;22.60;47.30;;;;;;5024625;28;19971;-70
2022/05/12 11:37:32;;;;;;;3.67;0.88;;;22.60;47.30;;;;;;5027175;28;20041;-71
2022/05/12 11:40:01;;;;;;;3.60;0.90;;;22.70;47.30;;;;;;5026099;28;20053;-70
2022/05/12 11:44:23;;;;;;;4.43;0.82;;;22.70;47.40;;;;;;5026617;28;20243;-72
2022/05/12 11:45:31;;;;;;;1.58;0.70;;;22.70;47.30;;;;;;5022616;28;20068;-71
2022/05/12 11:48:18;;;;;;;2.38;0.70;;;22.70;48.10;;;;;;5025653;28;20049;-71
2022/05/12 11:50:47;;;;;;;1.92;0.80;;;22.70;47.30;;;;;;5008349;28;20095;-72
2022/05/12 11:53:19;;;;;;;;;;;22.70;47.20;;;;;;5024713;28;20548;-67
2022/05/12 11:55:56;;;;;;;6.60;0.80;;;22.70;47.20;;;;;;5026433;28;20337;-70
2022/05/12 11:58:41;;;;;;;2.10;0.70;;;22.70;47.00;;;;;;5018370;28;20489;-70
2022/05/12 12:01:39;;;;;;;2.65;0.85;;;22.80;47.20;;;;;;5013968;28;20520;-70
2022/05/12 12:04:05;;;;;;;4.55;0.80;;;22.90;47.30;;;;;;5016178;28;20602;-72
2022/05/12 12:06:44;;;;;;;2.50;0.80;;;22.90;47.20;;;;;;5018453;28;20057;-72
2022/05/12 12:09:26;;;;;;;5.85;0.73;;;22.90;47.30;;;;;;5017702;28;20144;-71
2022/05/12 12:11:52;;;;;;;8.10;0.98;;;23.00;47.30;;;;;;5016470;28;20595;-70
2022/05/12 12:14:42;;;;;;;4.13;0.90;;;23.00;47.30;;;;;;5017389;28;20041;-72
2022/05/12 12:17:32;;;;;;;6.60;1.25;;;23.10;47.30;;;;;;5015754;28;20049;-71
2022/05/12 12:20:07;;;;;;;21.08;1.52;;;23.10;47.00;;;;;;5014339;28;20128;-71
2022/05/12 12:22:40;;;;;;;8.52;1.30;;;23.20;47.50;;;;;;5017263;28;20041;-72
2022/05/12 12:25:08;;;;;;;2.13;0.95;;;23.20;47.30;;;;;;4989568;28;20073;-71
2022/05/12 12:27:52;;;;;;;5.20;1.20;;;23.20;47.10;;;;;;5005775;28;20411;-71
2022/05/12 12:30:21;;;;;;;6.97;1.13;;;23.30;47.00;;;;;;5021557;28;20038;-71
2022/05/12 12:33:18;;;;;;;7.13;1.10;;;23.20;46.90;;;;;;5016174;28;20041;-69
2022/05/12 12:36:08;;;;;;;6.17;1.40;;;23.30;47.00;;;;;;5016017;28;20052;-70
2022/05/12 12:38:48;;;;;;;6.40;1.70;;;23.40;47.20;;;;;;5019846;28;20505;-69
2022/05/12 12:41:31;;;;;;;6.20;1.60;;;23.40;47.20;;;;;;5013477;28;20522;-71
2022/05/12 12:43:59;;;;;;;4.68;1.27;;;23.40;47.20;;;;;;4993490;28;20103;-69
2022/05/12 12:46:33;;;;;;;;;;;23.40;47.20;;;;;;5001888;28;20053;-70
2022/05/12 12:49:12;;;;;;;9.85;1.40;;;23.40;47.30;;;;;;5012760;28;20063;-71
2022/05/12 12:51:39;;;;;;;8.80;1.38;;;23.50;47.30;;;;;;5018040;28;20045;-70
2022/05/12 12:57:49;;;;;;;5.57;1.30;;;23.50;47.10;;;;;;5015270;28;20489;-69
2022/05/12 13:00:33;;;;;;;7.57;1.50;;;23.50;46.90;;;;;;5011610;28;20057;-69
2022/05/12 13:03:18;;;;;;;3.30;1.13;;;23.60;46.70;;;;;;5015242;28;20053;-69
2022/05/12 13:05:44;;;;;;;8.00;1.58;;;23.60;46.60;;;;;;5020162;28;20049;-68
2022/05/12 13:08:27;;;;;;;3.03;0.98;;;23.60;46.40;;;;;;5014501;28;20515;-69
2022/05/12 13:11:00;;;;;;;2.60;1.10;;;23.60;46.30;;;;;;5014039;28;20080;-69
2022/05/12 13:13:27;;;;;;;4.10;1.15;;;23.60;46.30;;;;;;5021451;28;20559;-71
2022/05/12 13:16:03;;;;;;;10.15;1.30;;;23.70;46.20;;;;;;5005253;28;20045;-71
2022/05/12 13:18:42;;;;;;;3.85;1.30;;;23.70;46.20;;;;;;5017959;28;20433;-71
2022/05/12 13:21:16;;;;;;;3.47;1.00;;;23.70;46.10;;;;;;5017077;28;20064;-72
2022/05/12 13:23:44;;;;;;;5.60;1.17;;;23.70;46.10;;;;;;5002130;28;20084;-70
2022/05/12 13:26:10;;;;;;;3.70;1.30;;;23.70;46.10;;;;;;5017571;28;20061;-72
2022/05/12 13:28:37;;;;;;;5.80;1.27;;;23.60;46.10;;;;;;5017421;28;20303;-72